sensor_id;sensor_type;location;lat;lon;timestamp;temperature;humidity
15834;DHT22;8017;50.812;4.934;2022-07-06T00:01:23;14.00;99.90
15834;DHT22;8017;50.812;4.934;2022-07-06T00:04:26;13.90;99.90
15834;DHT22;8017;50.812;4.934;2022-07-06T00:07:28;13.90;99.90
15834;DHT22;8017;50.812;4.934;2022-07-06T00:10:30;13.80;99.90
15834;DHT22;8017;50.812;4.934;2022-07-06T00:13:32;13.80;99.90
15834;DHT22;8017;50.812;4.934;2022-07-06T00:16:34;13.70;99.90
15834;DHT22;8017;50.812;4.934;2022-07-06T00:19:37;13.60;99.90
15834;DHT22;8017;50.812;4.934;2022-07-06T00:22:39;13.50;99.90
15834;DHT22;8017;50.812;4.934;2022-07-06T00:25:41;13.40;99.90
15834;DHT22;8017;50.812;4.934;2022-07-06T00:28:43;13.30;99.90
15834;DHT22;8017;50.812;4.934;2022-07-06T00:31:45;13.20;99.90
15834;DHT22;8017;50.812;4.934;2022-07-06T00:34:48;13.20;99.90
15834;DHT22;8017;50.812;4.934;2022-07-06T00:37:50;13.20;99.90
15834;DHT22;8017;50.812;4.934;2022-07-06T00:40:52;13.20;99.90
15834;DHT22;8017;50.812;4.934;2022-07-06T00:43:55;13.20;99.90
15834;DHT22;8017;50.812;4.934;2022-07-06T00:46:57;13.10;99.90
15834;DHT22;8017;50.812;4.934;2022-07-06T00:50:01;13.10;99.90
15834;DHT22;8017;50.812;4.934;2022-07-06T00:53:21;13.10;99.90
15834;DHT22;8017;50.812;4.934;2022-07-06T00:56:23;13.10;99.90
15834;DHT22;8017;50.812;4.934;2022-07-06T00:59:27;13.10;99.90
15834;DHT22;8017;50.812;4.934;2022-07-06T01:02:30;13.00;99.90
15834;DHT22;8017;50.812;4.934;2022-07-06T01:05:34;12.90;99.90
15834;DHT22;8017;50.812;4.934;2022-07-06T01:08:36;13.00;99.90
15834;DHT22;8017;50.812;4.934;2022-07-06T01:11:39;12.90;99.90
15834;DHT22;8017;50.812;4.934;2022-07-06T01:14:41;12.80;99.90
15834;DHT22;8017;50.812;4.934;2022-07-06T01:17:43;12.80;99.90
15834;DHT22;8017;50.812;4.934;2022-07-06T01:20:47;12.80;99.90
15834;DHT22;8017;50.812;4.934;2022-07-06T01:23:49;12.70;99.90
15834;DHT22;8017;50.812;4.934;2022-07-06T01:26:51;12.70;99.90
15834;DHT22;8017;50.812;4.934;2022-07-06T01:29:53;12.60;99.90
15834;DHT22;8017;50.812;4.934;2022-07-06T01:32:54;12.60;99.90
15834;DHT22;8017;50.812;4.934;2022-07-06T01:35:58;12.60;99.90
15834;DHT22;8017;50.812;4.934;2022-07-06T01:39:00;12.50;99.90
15834;DHT22;8017;50.812;4.934;2022-07-06T01:42:02;12.50;99.90
15834;DHT22;8017;50.812;4.934;2022-07-06T01:45:05;12.50;99.90
15834;DHT22;8017;50.812;4.934;2022-07-06T01:48:07;12.40;99.90
15834;DHT22;8017;50.812;4.934;2022-07-06T01:51:11;12.40;99.90
15834;DHT22;8017;50.812;4.934;2022-07-06T01:54:13;12.40;99.90
15834;DHT22;8017;50.812;4.934;2022-07-06T01:57:16;12.30;99.90
15834;DHT22;8017;50.812;4.934;2022-07-06T02:00:17;12.30;99.90
15834;DHT22;8017;50.812;4.934;2022-07-06T02:03:19;12.20;99.90
15834;DHT22;8017;50.812;4.934;2022-07-06T02:06:23;12.10;99.90
15834;DHT22;8017;50.812;4.934;2022-07-06T02:09:24;12.10;99.90
15834;DHT22;8017;50.812;4.934;2022-07-06T02:12:26;12.10;99.90
15834;DHT22;8017;50.812;4.934;2022-07-06T02:15:28;12.00;99.90
15834;DHT22;8017;50.812;4.934;2022-07-06T02:18:30;12.00;99.90
15834;DHT22;8017;50.812;4.934;2022-07-06T02:21:33;12.00;99.90
15834;DHT22;8017;50.812;4.934;2022-07-06T02:24:35;12.00;99.90
15834;DHT22;8017;50.812;4.934;2022-07-06T02:27:37;11.90;99.90
15834;DHT22;8017;50.812;4.934;2022-07-06T02:30:39;11.90;99.90
15834;DHT22;8017;50.812;4.934;2022-07-06T02:33:41;11.90;99.90
15834;DHT22;8017;50.812;4.934;2022-07-06T02:36:44;11.90;99.90
15834;DHT22;8017;50.812;4.934;2022-07-06T02:39:46;12.00;99.90
15834;DHT22;8017;50.812;4.934;2022-07-06T02:42:48;11.90;99.90
15834;DHT22;8017;50.812;4.934;2022-07-06T02:45:49;11.90;99.90
15834;DHT22;8017;50.812;4.934;2022-07-06T02:48:51;11.90;99.90
15834;DHT22;8017;50.812;4.934;2022-07-06T02:51:54;11.90;99.90
15834;DHT22;8017;50.812;4.934;2022-07-06T02:54:56;11.90;99.90
15834;DHT22;8017;50.812;4.934;2022-07-06T02:57:58;11.90;99.90
15834;DHT22;8017;50.812;4.934;2022-07-06T03:01:00;11.90;99.90
15834;DHT22;8017;50.812;4.934;2022-07-06T03:04:02;11.80;99.90
15834;DHT22;8017;50.812;4.934;2022-07-06T03:07:05;11.80;99.90
15834;DHT22;8017;50.812;4.934;2022-07-06T03:10:07;11.70;99.90
15834;DHT22;8017;50.812;4.934;2022-07-06T03:13:09;11.70;99.90
15834;DHT22;8017;50.812;4.934;2022-07-06T03:16:11;11.80;99.90
15834;DHT22;8017;50.812;4.934;2022-07-06T03:19:13;11.80;99.90
15834;DHT22;8017;50.812;4.934;2022-07-06T03:22:16;11.90;99.90
15834;DHT22;8017;50.812;4.934;2022-07-06T03:25:18;11.90;99.90
15834;DHT22;8017;50.812;4.934;2022-07-06T03:28:20;11.80;99.90
15834;DHT22;8017;50.812;4.934;2022-07-06T03:31:22;11.70;99.90
15834;DHT22;8017;50.812;4.934;2022-07-06T03:34:24;11.80;99.90
15834;DHT22;8017;50.812;4.934;2022-07-06T03:37:27;11.90;99.90
15834;DHT22;8017;50.812;4.934;2022-07-06T03:40:29;11.90;99.90
15834;DHT22;8017;50.812;4.934;2022-07-06T03:43:30;12.00;99.90
15834;DHT22;8017;50.812;4.934;2022-07-06T03:46:32;12.10;99.90
15834;DHT22;8017;50.812;4.934;2022-07-06T03:49:34;12.20;99.90
15834;DHT22;8017;50.812;4.934;2022-07-06T03:52:37;12.30;99.90
15834;DHT22;8017;50.812;4.934;2022-07-06T03:55:40;12.40;99.90
15834;DHT22;8017;50.812;4.934;2022-07-06T03:58:42;12.30;99.90
15834;DHT22;8017;50.812;4.934;2022-07-06T04:01:44;12.40;99.90
15834;DHT22;8017;50.812;4.934;2022-07-06T04:04:46;12.40;99.90
15834;DHT22;8017;50.812;4.934;2022-07-06T04:07:49;12.50;99.90
15834;DHT22;8017;50.812;4.934;2022-07-06T04:10:51;12.60;99.90
15834;DHT22;8017;50.812;4.934;2022-07-06T04:13:53;12.70;99.90
15834;DHT22;8017;50.812;4.934;2022-07-06T04:16:55;13.30;99.90
15834;DHT22;8017;50.812;4.934;2022-07-06T04:19:57;13.80;99.90
15834;DHT22;8017;50.812;4.934;2022-07-06T04:23:00;14.40;99.90
15834;DHT22;8017;50.812;4.934;2022-07-06T04:26:02;14.70;99.90
15834;DHT22;8017;50.812;4.934;2022-07-06T04:29:04;14.80;99.90
15834;DHT22;8017;50.812;4.934;2022-07-06T04:32:06;15.00;99.90
15834;DHT22;8017;50.812;4.934;2022-07-06T04:35:09;14.90;99.90
15834;DHT22;8017;50.812;4.934;2022-07-06T04:38:12;14.60;99.90
15834;DHT22;8017;50.812;4.934;2022-07-06T04:41:14;14.30;99.90
15834;DHT22;8017;50.812;4.934;2022-07-06T04:44:16;14.20;99.90
15834;DHT22;8017;50.812;4.934;2022-07-06T04:47:18;14.30;99.90
15834;DHT22;8017;50.812;4.934;2022-07-06T04:50:20;14.40;99.90
15834;DHT22;8017;50.812;4.934;2022-07-06T04:53:23;14.40;99.90
15834;DHT22;8017;50.812;4.934;2022-07-06T04:56:25;14.60;99.90
15834;DHT22;8017;50.812;4.934;2022-07-06T04:59:27;15.30;99.90
15834;DHT22;8017;50.812;4.934;2022-07-06T05:02:29;16.80;99.90
15834;DHT22;8017;50.812;4.934;2022-07-06T05:05:30;17.90;99.90
15834;DHT22;8017;50.812;4.934;2022-07-06T05:08:34;17.30;99.90
15834;DHT22;8017;50.812;4.934;2022-07-06T05:11:35;16.70;99.90
15834;DHT22;8017;50.812;4.934;2022-07-06T05:14:38;16.40;99.90
15834;DHT22;8017;50.812;4.934;2022-07-06T05:17:40;16.00;99.90
15834;DHT22;8017;50.812;4.934;2022-07-06T05:20:42;16.00;99.90
15834;DHT22;8017;50.812;4.934;2022-07-06T05:23:46;16.00;99.90
15834;DHT22;8017;50.812;4.934;2022-07-06T05:26:47;16.10;99.90
15834;DHT22;8017;50.812;4.934;2022-07-06T05:29:49;16.10;99.90
15834;DHT22;8017;50.812;4.934;2022-07-06T05:32:51;16.00;99.90
15834;DHT22;8017;50.812;4.934;2022-07-06T05:35:56;16.10;99.90
15834;DHT22;8017;50.812;4.934;2022-07-06T05:39:00;16.10;99.90
15834;DHT22;8017;50.812;4.934;2022-07-06T05:42:02;16.20;99.90
15834;DHT22;8017;50.812;4.934;2022-07-06T05:45:06;16.00;99.90
15834;DHT22;8017;50.812;4.934;2022-07-06T05:48:08;16.00;99.90
15834;DHT22;8017;50.812;4.934;2022-07-06T05:51:28;16.10;99.90
15834;DHT22;8017;50.812;4.934;2022-07-06T05:54:31;16.10;99.90
15834;DHT22;8017;50.812;4.934;2022-07-06T05:57:33;16.20;99.90
15834;DHT22;8017;50.812;4.934;2022-07-06T06:00:35;16.00;99.90
15834;DHT22;8017;50.812;4.934;2022-07-06T06:03:37;16.00;99.90
15834;DHT22;8017;50.812;4.934;2022-07-06T06:06:38;16.10;99.90
15834;DHT22;8017;50.812;4.934;2022-07-06T06:09:42;16.00;99.90
15834;DHT22;8017;50.812;4.934;2022-07-06T06:12:44;16.30;99.90
15834;DHT22;8017;50.812;4.934;2022-07-06T06:15:46;16.70;99.90
15834;DHT22;8017;50.812;4.934;2022-07-06T06:18:48;17.00;99.90
15834;DHT22;8017;50.812;4.934;2022-07-06T06:21:50;17.10;99.90
15834;DHT22;8017;50.812;4.934;2022-07-06T06:24:54;17.00;99.90
15834;DHT22;8017;50.812;4.934;2022-07-06T06:27:56;17.20;99.90
15834;DHT22;8017;50.812;4.934;2022-07-06T06:30:57;17.70;99.90
15834;DHT22;8017;50.812;4.934;2022-07-06T06:33:59;18.20;99.90
15834;DHT22;8017;50.812;4.934;2022-07-06T06:37:01;18.40;99.90
15834;DHT22;8017;50.812;4.934;2022-07-06T06:40:06;18.90;99.90
15834;DHT22;8017;50.812;4.934;2022-07-06T06:43:08;19.20;99.90
15834;DHT22;8017;50.812;4.934;2022-07-06T06:46:10;19.40;99.90
15834;DHT22;8017;50.812;4.934;2022-07-06T06:49:12;19.40;99.90
15834;DHT22;8017;50.812;4.934;2022-07-06T06:52:14;19.70;99.90
15834;DHT22;8017;50.812;4.934;2022-07-06T06:55:18;19.90;99.90
15834;DHT22;8017;50.812;4.934;2022-07-06T06:58:20;19.90;99.90
15834;DHT22;8017;50.812;4.934;2022-07-06T07:01:22;19.70;99.90
15834;DHT22;8017;50.812;4.934;2022-07-06T07:04:23;19.80;99.90
15834;DHT22;8017;50.812;4.934;2022-07-06T07:07:25;19.70;99.90
15834;DHT22;8017;50.812;4.934;2022-07-06T07:10:29;19.40;99.90
15834;DHT22;8017;50.812;4.934;2022-07-06T07:13:31;19.50;99.90
15834;DHT22;8017;50.812;4.934;2022-07-06T07:16:33;19.90;99.90
15834;DHT22;8017;50.812;4.934;2022-07-06T07:19:34;19.90;99.90
15834;DHT22;8017;50.812;4.934;2022-07-06T07:22:36;19.80;99.90
15834;DHT22;8017;50.812;4.934;2022-07-06T07:25:40;19.70;99.90
15834;DHT22;8017;50.812;4.934;2022-07-06T07:28:41;19.50;99.90
15834;DHT22;8017;50.812;4.934;2022-07-06T07:31:43;19.20;99.90
15834;DHT22;8017;50.812;4.934;2022-07-06T07:34:45;19.20;99.90
15834;DHT22;8017;50.812;4.934;2022-07-06T07:37:47;19.00;99.90
15834;DHT22;8017;50.812;4.934;2022-07-06T07:40:52;19.10;99.90
15834;DHT22;8017;50.812;4.934;2022-07-06T07:43:54;19.30;99.90
15834;DHT22;8017;50.812;4.934;2022-07-06T07:46:56;19.20;99.90
15834;DHT22;8017;50.812;4.934;2022-07-06T07:49:58;19.10;99.90
15834;DHT22;8017;50.812;4.934;2022-07-06T07:53:00;19.40;99.90
15834;DHT22;8017;50.812;4.934;2022-07-06T07:56:04;19.80;99.90
15834;DHT22;8017;50.812;4.934;2022-07-06T07:59:06;19.80;99.90
15834;DHT22;8017;50.812;4.934;2022-07-06T08:02:08;20.10;99.90
15834;DHT22;8017;50.812;4.934;2022-07-06T08:05:10;20.20;99.90
15834;DHT22;8017;50.812;4.934;2022-07-06T08:08:14;20.20;99.90
15834;DHT22;8017;50.812;4.934;2022-07-06T08:11:17;20.20;99.90
15834;DHT22;8017;50.812;4.934;2022-07-06T08:14:19;20.40;99.90
15834;DHT22;8017;50.812;4.934;2022-07-06T08:17:21;20.10;99.90
15834;DHT22;8017;50.812;4.934;2022-07-06T08:20:23;20.30;99.90
15834;DHT22;8017;50.812;4.934;2022-07-06T08:23:25;20.30;99.90
15834;DHT22;8017;50.812;4.934;2022-07-06T08:26:29;20.30;99.90
15834;DHT22;8017;50.812;4.934;2022-07-06T08:29:33;20.40;99.90
15834;DHT22;8017;50.812;4.934;2022-07-06T08:32:37;20.50;99.90
15834;DHT22;8017;50.812;4.934;2022-07-06T08:35:40;20.50;99.90
15834;DHT22;8017;50.812;4.934;2022-07-06T08:38:41;20.70;99.90
15834;DHT22;8017;50.812;4.934;2022-07-06T08:41:45;20.70;99.90
15834;DHT22;8017;50.812;4.934;2022-07-06T08:44:50;20.50;99.90
15834;DHT22;8017;50.812;4.934;2022-07-06T08:47:54;20.60;99.90
15834;DHT22;8017;50.812;4.934;2022-07-06T08:50:56;20.40;99.90
15834;DHT22;8017;50.812;4.934;2022-07-06T08:53:59;20.70;99.90
15834;DHT22;8017;50.812;4.934;2022-07-06T08:57:05;21.00;99.90
15834;DHT22;8017;50.812;4.934;2022-07-06T09:00:08;21.40;99.90
15834;DHT22;8017;50.812;4.934;2022-07-06T09:03:12;21.20;99.90
15834;DHT22;8017;50.812;4.934;2022-07-06T09:06:17;21.50;99.90
15834;DHT22;8017;50.812;4.934;2022-07-06T09:09:23;22.10;99.90
15834;DHT22;8017;50.812;4.934;2022-07-06T09:12:27;22.30;99.90
15834;DHT22;8017;50.812;4.934;2022-07-06T09:15:30;22.10;99.90
15834;DHT22;8017;50.812;4.934;2022-07-06T09:18:36;21.90;99.90
15834;DHT22;8017;50.812;4.934;2022-07-06T09:21:38;22.40;99.90
15834;DHT22;8017;50.812;4.934;2022-07-06T09:24:42;22.40;99.90
15834;DHT22;8017;50.812;4.934;2022-07-06T09:27:47;22.60;99.90
15834;DHT22;8017;50.812;4.934;2022-07-06T09:30:54;23.10;99.90
15834;DHT22;8017;50.812;4.934;2022-07-06T09:33:58;23.50;99.90
15834;DHT22;8017;50.812;4.934;2022-07-06T09:37:03;23.40;99.90
15834;DHT22;8017;50.812;4.934;2022-07-06T09:40:16;23.20;99.90
15834;DHT22;8017;50.812;4.934;2022-07-06T09:43:21;22.80;99.90
15834;DHT22;8017;50.812;4.934;2022-07-06T09:46:24;22.80;99.90
15834;DHT22;8017;50.812;4.934;2022-07-06T09:49:26;22.80;99.90
15834;DHT22;8017;50.812;4.934;2022-07-06T09:52:28;23.00;99.90
15834;DHT22;8017;50.812;4.934;2022-07-06T09:55:30;23.10;99.90
15834;DHT22;8017;50.812;4.934;2022-07-06T09:58:38;23.40;99.90
15834;DHT22;8017;50.812;4.934;2022-07-06T10:01:41;23.40;99.90
15834;DHT22;8017;50.812;4.934;2022-07-06T10:04:44;23.10;99.90
15834;DHT22;8017;50.812;4.934;2022-07-06T10:07:50;23.20;99.90
15834;DHT22;8017;50.812;4.934;2022-07-06T10:10:52;23.40;99.90
15834;DHT22;8017;50.812;4.934;2022-07-06T10:13:57;23.70;99.90
15834;DHT22;8017;50.812;4.934;2022-07-06T10:17:00;24.00;99.90
15834;DHT22;8017;50.812;4.934;2022-07-06T10:20:03;24.50;99.90
15834;DHT22;8017;50.812;4.934;2022-07-06T10:23:07;24.60;99.90
15834;DHT22;8017;50.812;4.934;2022-07-06T10:26:09;24.50;99.90
15834;DHT22;8017;50.812;4.934;2022-07-06T10:29:14;24.20;99.90
15834;DHT22;8017;50.812;4.934;2022-07-06T10:32:18;24.20;99.90
15834;DHT22;8017;50.812;4.934;2022-07-06T10:35:20;23.90;99.90
15834;DHT22;8017;50.812;4.934;2022-07-06T10:38:30;23.70;99.90
15834;DHT22;8017;50.812;4.934;2022-07-06T10:41:34;23.50;99.90
15834;DHT22;8017;50.812;4.934;2022-07-06T10:44:44;23.30;99.90
15834;DHT22;8017;50.812;4.934;2022-07-06T10:47:46;23.10;99.90
15834;DHT22;8017;50.812;4.934;2022-07-06T10:50:50;23.70;99.90
15834;DHT22;8017;50.812;4.934;2022-07-06T10:53:57;24.00;99.90
15834;DHT22;8017;50.812;4.934;2022-07-06T10:57:08;23.20;99.90
15834;DHT22;8017;50.812;4.934;2022-07-06T11:00:13;23.40;99.90
15834;DHT22;8017;50.812;4.934;2022-07-06T11:03:36;23.80;99.90
15834;DHT22;8017;50.812;4.934;2022-07-06T11:06:39;23.70;99.90
15834;DHT22;8017;50.812;4.934;2022-07-06T11:09:41;24.10;99.90
15834;DHT22;8017;50.812;4.934;2022-07-06T11:12:58;23.80;99.90
15834;DHT22;8017;50.812;4.934;2022-07-06T11:16:04;23.90;99.90
15834;DHT22;8017;50.812;4.934;2022-07-06T11:19:08;23.60;99.90
15834;DHT22;8017;50.812;4.934;2022-07-06T11:22:11;23.80;99.90
15834;DHT22;8017;50.812;4.934;2022-07-06T11:25:16;24.10;99.90
15834;DHT22;8017;50.812;4.934;2022-07-06T11:28:19;24.30;99.90
15834;DHT22;8017;50.812;4.934;2022-07-06T11:31:23;24.70;99.90
15834;DHT22;8017;50.812;4.934;2022-07-06T11:34:27;24.40;99.90
15834;DHT22;8017;50.812;4.934;2022-07-06T11:37:29;24.20;99.90
15834;DHT22;8017;50.812;4.934;2022-07-06T11:40:31;24.10;99.90
15834;DHT22;8017;50.812;4.934;2022-07-06T11:43:38;24.20;99.90
15834;DHT22;8017;50.812;4.934;2022-07-06T11:46:45;23.80;99.90
15834;DHT22;8017;50.812;4.934;2022-07-06T11:49:50;23.40;99.90
15834;DHT22;8017;50.812;4.934;2022-07-06T11:52:52;23.10;99.90
15834;DHT22;8017;50.812;4.934;2022-07-06T11:55:55;23.20;99.90
15834;DHT22;8017;50.812;4.934;2022-07-06T11:58:58;23.40;99.90
15834;DHT22;8017;50.812;4.934;2022-07-06T12:02:04;23.30;99.90
15834;DHT22;8017;50.812;4.934;2022-07-06T12:05:07;23.60;99.90
15834;DHT22;8017;50.812;4.934;2022-07-06T12:08:09;24.00;99.90
15834;DHT22;8017;50.812;4.934;2022-07-06T12:11:11;24.40;99.90
15834;DHT22;8017;50.812;4.934;2022-07-06T12:14:19;24.60;99.90
15834;DHT22;8017;50.812;4.934;2022-07-06T12:17:23;24.50;99.90
15834;DHT22;8017;50.812;4.934;2022-07-06T12:20:25;24.60;99.90
15834;DHT22;8017;50.812;4.934;2022-07-06T12:23:38;24.70;99.90
15834;DHT22;8017;50.812;4.934;2022-07-06T12:26:40;24.50;99.90
15834;DHT22;8017;50.812;4.934;2022-07-06T12:29:42;24.30;99.90
15834;DHT22;8017;50.812;4.934;2022-07-06T12:32:46;24.30;99.90
15834;DHT22;8017;50.812;4.934;2022-07-06T12:35:48;24.40;99.90
15834;DHT22;8017;50.812;4.934;2022-07-06T12:38:50;24.70;99.90
15834;DHT22;8017;50.812;4.934;2022-07-06T12:41:53;24.40;99.90
15834;DHT22;8017;50.812;4.934;2022-07-06T12:44:55;24.40;99.90
15834;DHT22;8017;50.812;4.934;2022-07-06T12:47:59;24.50;99.90
15834;DHT22;8017;50.812;4.934;2022-07-06T12:51:01;24.20;99.90
15834;DHT22;8017;50.812;4.934;2022-07-06T12:54:12;23.90;99.90
15834;DHT22;8017;50.812;4.934;2022-07-06T12:57:16;23.90;99.90
15834;DHT22;8017;50.812;4.934;2022-07-06T13:00:18;23.70;99.90
15834;DHT22;8017;50.812;4.934;2022-07-06T13:03:23;24.10;99.90
15834;DHT22;8017;50.812;4.934;2022-07-06T13:06:32;24.20;99.90
15834;DHT22;8017;50.812;4.934;2022-07-06T13:09:34;24.20;99.90
15834;DHT22;8017;50.812;4.934;2022-07-06T13:12:36;23.90;99.90
15834;DHT22;8017;50.812;4.934;2022-07-06T13:15:41;23.80;99.90
15834;DHT22;8017;50.812;4.934;2022-07-06T13:18:44;23.50;99.90
15834;DHT22;8017;50.812;4.934;2022-07-06T13:21:46;23.50;99.90
15834;DHT22;8017;50.812;4.934;2022-07-06T13:24:48;23.50;99.90
15834;DHT22;8017;50.812;4.934;2022-07-06T13:27:50;23.60;99.90
15834;DHT22;8017;50.812;4.934;2022-07-06T13:30:52;23.40;99.90
15834;DHT22;8017;50.812;4.934;2022-07-06T13:33:55;23.50;99.90
15834;DHT22;8017;50.812;4.934;2022-07-06T13:36:57;24.10;99.90
15834;DHT22;8017;50.812;4.934;2022-07-06T13:39:59;24.70;99.90
15834;DHT22;8017;50.812;4.934;2022-07-06T13:43:01;24.80;99.90
15834;DHT22;8017;50.812;4.934;2022-07-06T13:46:03;25.00;99.90
15834;DHT22;8017;50.812;4.934;2022-07-06T13:49:07;24.90;99.90
15834;DHT22;8017;50.812;4.934;2022-07-06T13:52:08;25.10;99.90
15834;DHT22;8017;50.812;4.934;2022-07-06T13:55:10;24.90;99.90
15834;DHT22;8017;50.812;4.934;2022-07-06T13:58:12;25.10;99.90
15834;DHT22;8017;50.812;4.934;2022-07-06T14:01:14;25.10;99.90
15834;DHT22;8017;50.812;4.934;2022-07-06T14:04:18;25.00;99.90
15834;DHT22;8017;50.812;4.934;2022-07-06T14:07:20;24.80;99.90
15834;DHT22;8017;50.812;4.934;2022-07-06T14:10:22;24.80;99.90
15834;DHT22;8017;50.812;4.934;2022-07-06T14:13:24;24.80;99.90
15834;DHT22;8017;50.812;4.934;2022-07-06T14:16:26;25.10;99.90
15834;DHT22;8017;50.812;4.934;2022-07-06T14:19:30;25.40;99.90
15834;DHT22;8017;50.812;4.934;2022-07-06T14:22:32;25.50;99.90
15834;DHT22;8017;50.812;4.934;2022-07-06T14:25:34;25.40;99.90
15834;DHT22;8017;50.812;4.934;2022-07-06T14:28:36;25.50;99.90
15834;DHT22;8017;50.812;4.934;2022-07-06T14:31:38;25.90;99.90
15834;DHT22;8017;50.812;4.934;2022-07-06T14:34:41;25.70;99.90
15834;DHT22;8017;50.812;4.934;2022-07-06T14:37:43;25.20;99.90
15834;DHT22;8017;50.812;4.934;2022-07-06T14:40:45;24.80;99.90
15834;DHT22;8017;50.812;4.934;2022-07-06T14:43:48;25.20;99.90
15834;DHT22;8017;50.812;4.934;2022-07-06T14:46:50;25.30;99.90
15834;DHT22;8017;50.812;4.934;2022-07-06T14:49:53;25.60;99.90
15834;DHT22;8017;50.812;4.934;2022-07-06T14:52:55;25.70;99.90
15834;DHT22;8017;50.812;4.934;2022-07-06T14:55:57;25.60;99.90
15834;DHT22;8017;50.812;4.934;2022-07-06T14:58:59;26.10;99.90
15834;DHT22;8017;50.812;4.934;2022-07-06T15:02:00;25.90;99.90
15834;DHT22;8017;50.812;4.934;2022-07-06T15:05:05;25.70;99.90
15834;DHT22;8017;50.812;4.934;2022-07-06T15:08:07;25.90;99.90
15834;DHT22;8017;50.812;4.934;2022-07-06T15:11:08;25.70;99.90
15834;DHT22;8017;50.812;4.934;2022-07-06T15:14:10;25.40;99.90
15834;DHT22;8017;50.812;4.934;2022-07-06T15:17:12;25.40;99.90
15834;DHT22;8017;50.812;4.934;2022-07-06T15:20:16;25.50;99.90
15834;DHT22;8017;50.812;4.934;2022-07-06T15:23:18;25.60;99.90
15834;DHT22;8017;50.812;4.934;2022-07-06T15:26:20;25.80;99.90
15834;DHT22;8017;50.812;4.934;2022-07-06T15:29:22;26.20;99.90
15834;DHT22;8017;50.812;4.934;2022-07-06T15:32:24;26.70;99.90
15834;DHT22;8017;50.812;4.934;2022-07-06T15:35:27;26.90;99.90
15834;DHT22;8017;50.812;4.934;2022-07-06T15:38:29;26.90;99.90
15834;DHT22;8017;50.812;4.934;2022-07-06T15:41:31;26.40;99.90
15834;DHT22;8017;50.812;4.934;2022-07-06T15:44:33;26.60;99.90
15834;DHT22;8017;50.812;4.934;2022-07-06T15:47:35;26.90;99.90
15834;DHT22;8017;50.812;4.934;2022-07-06T15:50:38;27.60;99.90
15834;DHT22;8017;50.812;4.934;2022-07-06T15:53:40;27.30;99.90
15834;DHT22;8017;50.812;4.934;2022-07-06T15:56:45;26.60;99.90
15834;DHT22;8017;50.812;4.934;2022-07-06T15:59:47;26.00;99.90
15834;DHT22;8017;50.812;4.934;2022-07-06T16:02:49;25.90;99.90
15834;DHT22;8017;50.812;4.934;2022-07-06T16:05:52;25.80;99.90
15834;DHT22;8017;50.812;4.934;2022-07-06T16:08:54;25.60;99.90
15834;DHT22;8017;50.812;4.934;2022-07-06T16:11:56;25.20;99.90
15834;DHT22;8017;50.812;4.934;2022-07-06T16:14:58;25.20;99.90
15834;DHT22;8017;50.812;4.934;2022-07-06T16:18:00;25.30;99.90
15834;DHT22;8017;50.812;4.934;2022-07-06T16:21:03;25.80;99.90
15834;DHT22;8017;50.812;4.934;2022-07-06T16:24:05;26.00;99.90
15834;DHT22;8017;50.812;4.934;2022-07-06T16:27:07;26.40;99.90
15834;DHT22;8017;50.812;4.934;2022-07-06T16:30:11;26.60;99.90
15834;DHT22;8017;50.812;4.934;2022-07-06T16:33:13;26.60;99.90
15834;DHT22;8017;50.812;4.934;2022-07-06T16:36:17;26.10;99.90
15834;DHT22;8017;50.812;4.934;2022-07-06T16:39:19;25.50;99.90
15834;DHT22;8017;50.812;4.934;2022-07-06T16:42:21;25.40;99.90
15834;DHT22;8017;50.812;4.934;2022-07-06T16:45:23;25.60;99.90
15834;DHT22;8017;50.812;4.934;2022-07-06T16:48:25;26.20;99.90
15834;DHT22;8017;50.812;4.934;2022-07-06T16:51:28;26.10;99.90
15834;DHT22;8017;50.812;4.934;2022-07-06T16:54:30;25.90;99.90
15834;DHT22;8017;50.812;4.934;2022-07-06T16:57:32;26.10;99.90
15834;DHT22;8017;50.812;4.934;2022-07-06T17:00:34;26.30;99.90
15834;DHT22;8017;50.812;4.934;2022-07-06T17:03:37;26.80;99.90
15834;DHT22;8017;50.812;4.934;2022-07-06T17:06:40;27.20;99.90
15834;DHT22;8017;50.812;4.934;2022-07-06T17:09:42;26.60;99.90
15834;DHT22;8017;50.812;4.934;2022-07-06T17:12:44;26.20;99.90
15834;DHT22;8017;50.812;4.934;2022-07-06T17:15:46;25.70;99.90
15834;DHT22;8017;50.812;4.934;2022-07-06T17:18:48;25.50;99.90
15834;DHT22;8017;50.812;4.934;2022-07-06T17:21:51;25.10;99.90
15834;DHT22;8017;50.812;4.934;2022-07-06T17:24:53;24.80;99.90
15834;DHT22;8017;50.812;4.934;2022-07-06T17:27:55;24.80;99.90
15834;DHT22;8017;50.812;4.934;2022-07-06T17:30:57;24.90;99.90
15834;DHT22;8017;50.812;4.934;2022-07-06T17:33:58;24.70;99.90
15834;DHT22;8017;50.812;4.934;2022-07-06T17:37:04;24.60;99.90
15834;DHT22;8017;50.812;4.934;2022-07-06T17:40:07;24.70;99.90
15834;DHT22;8017;50.812;4.934;2022-07-06T17:43:09;24.80;99.90
15834;DHT22;8017;50.812;4.934;2022-07-06T17:46:11;24.60;99.90
15834;DHT22;8017;50.812;4.934;2022-07-06T17:49:13;24.30;99.90
15834;DHT22;8017;50.812;4.934;2022-07-06T17:52:16;24.10;99.90
15834;DHT22;8017;50.812;4.934;2022-07-06T17:55:19;24.00;99.90
15834;DHT22;8017;50.812;4.934;2022-07-06T17:58:21;23.80;99.90
15834;DHT22;8017;50.812;4.934;2022-07-06T18:01:23;23.70;99.90
15834;DHT22;8017;50.812;4.934;2022-07-06T18:04:25;23.60;99.90
15834;DHT22;8017;50.812;4.934;2022-07-06T18:07:28;23.60;99.90
15834;DHT22;8017;50.812;4.934;2022-07-06T18:10:30;23.60;99.90
15834;DHT22;8017;50.812;4.934;2022-07-06T18:13:32;23.50;99.90
15834;DHT22;8017;50.812;4.934;2022-07-06T18:16:34;23.40;99.90
15834;DHT22;8017;50.812;4.934;2022-07-06T18:19:36;23.40;99.90
15834;DHT22;8017;50.812;4.934;2022-07-06T18:22:40;23.30;99.90
15834;DHT22;8017;50.812;4.934;2022-07-06T18:25:41;23.30;99.90
15834;DHT22;8017;50.812;4.934;2022-07-06T18:28:43;23.20;99.90
15834;DHT22;8017;50.812;4.934;2022-07-06T18:31:45;23.40;99.90
15834;DHT22;8017;50.812;4.934;2022-07-06T18:34:47;23.30;99.90
15834;DHT22;8017;50.812;4.934;2022-07-06T18:37:50;23.10;99.90
15834;DHT22;8017;50.812;4.934;2022-07-06T18:40:52;23.00;99.90
15834;DHT22;8017;50.812;4.934;2022-07-06T18:43:55;22.90;99.90
15834;DHT22;8017;50.812;4.934;2022-07-06T18:46:57;22.90;99.90
15834;DHT22;8017;50.812;4.934;2022-07-06T18:49:59;22.90;99.90
15834;DHT22;8017;50.812;4.934;2022-07-06T18:53:02;22.80;99.90
15834;DHT22;8017;50.812;4.934;2022-07-06T18:56:04;22.80;99.90
15834;DHT22;8017;50.812;4.934;2022-07-06T18:59:06;22.70;99.90
15834;DHT22;8017;50.812;4.934;2022-07-06T19:02:08;22.40;99.90
15834;DHT22;8017;50.812;4.934;2022-07-06T19:05:10;22.20;99.90
15834;DHT22;8017;50.812;4.934;2022-07-06T19:08:14;21.80;99.90
15834;DHT22;8017;50.812;4.934;2022-07-06T19:11:15;21.60;99.90
15834;DHT22;8017;50.812;4.934;2022-07-06T19:14:17;21.50;99.90
15834;DHT22;8017;50.812;4.934;2022-07-06T19:17:19;21.40;99.90
15834;DHT22;8017;50.812;4.934;2022-07-06T19:20:21;21.60;99.90
15834;DHT22;8017;50.812;4.934;2022-07-06T19:23:25;21.70;99.90
15834;DHT22;8017;50.812;4.934;2022-07-06T19:26:27;21.60;99.90
15834;DHT22;8017;50.812;4.934;2022-07-06T19:29:28;21.50;99.90
15834;DHT22;8017;50.812;4.934;2022-07-06T19:32:31;21.40;99.90